createdAt,value
2022-10-25T00:01:38.063Z,2.63
2022-10-25T00:04:04.665Z,2.47
2022-10-25T00:06:31.105Z,3.92
2022-10-25T00:08:57.443Z,3.40
2022-10-25T00:11:27.224Z,2.25
2022-10-25T00:13:55.515Z,3.05
2022-10-25T00:16:24.631Z,2.67
2022-10-25T00:18:51.482Z,2.90
2022-10-25T00:21:18.305Z,2.78
2022-10-25T00:23:44.665Z,2.75
2022-10-25T00:26:12.332Z,2.60
2022-10-25T00:28:39.111Z,3.30
2022-10-25T00:31:08.120Z,2.63
2022-10-25T00:33:38.530Z,2.40
2022-10-25T00:36:09.036Z,2.50
2022-10-25T00:38:36.062Z,2.45
2022-10-25T00:41:02.694Z,2.75
2022-10-25T00:43:41.380Z,3.40
2022-10-25T00:46:21.665Z,2.92
2022-10-25T00:48:58.662Z,2.35
2022-10-25T00:51:31.893Z,2.28
2022-10-25T00:53:58.499Z,2.50
2022-10-25T00:56:31.671Z,2.92
2022-10-25T00:59:01.945Z,2.45
2022-10-25T01:01:28.391Z,2.90
2022-10-25T01:03:58.029Z,2.40
2022-10-25T01:06:34.186Z,2.65
2022-10-25T01:09:01.933Z,2.58
2022-10-25T01:11:28.396Z,2.65
2022-10-25T01:13:56.492Z,2.92
2022-10-25T01:16:44.987Z,2.25
2022-10-25T01:19:17.449Z,2.15
2022-10-25T01:21:53.457Z,2.30
2022-10-25T01:24:28.802Z,3.03
2022-10-25T01:27:07.364Z,2.33
2022-10-25T01:29:55.722Z,2.58
2022-10-25T01:32:32.626Z,2.92
2022-10-25T01:35:06.752Z,2.60
2022-10-25T01:38:08.879Z,3.00
2022-10-25T01:41:09.141Z,2.30
2022-10-25T01:43:59.664Z,2.70
2022-10-25T01:46:36.569Z,2.47
2022-10-25T01:49:12.121Z,2.58
2022-10-25T01:51:38.677Z,2.45
2022-10-25T01:54:21.693Z,2.38
2022-10-25T01:57:18.687Z,2.05
2022-10-25T01:59:55.647Z,2.35
2022-10-25T02:02:43.090Z,2.83
2022-10-25T02:05:17.354Z,2.47
2022-10-25T02:07:58.138Z,2.92
2022-10-25T02:10:48.498Z,2.70
2022-10-25T02:13:48.207Z,2.60
2022-10-25T02:16:24.083Z,2.85
2022-10-25T02:18:58.259Z,2.75
2022-10-25T02:21:26.868Z,3.05
2022-10-25T02:23:54.943Z,3.60
2022-10-25T02:26:21.965Z,2.90
2022-10-25T02:28:49.133Z,3.30
2022-10-25T02:31:17.633Z,2.80
2022-10-25T02:33:47.762Z,3.45
2022-10-25T02:36:22.748Z,2.28
2022-10-25T02:38:51.125Z,3.00
2022-10-25T02:41:19.019Z,2.70
2022-10-25T02:43:45.481Z,2.60
2022-10-25T02:46:15.112Z,3.00
2022-10-25T02:48:42.211Z,3.60
2022-10-25T02:51:10.313Z,2.42
2022-10-25T02:53:37.618Z,2.45
2022-10-25T02:56:12.916Z,3.03
2022-10-25T02:58:40.626Z,2.90
2022-10-25T03:01:08.378Z,2.97
2022-10-25T03:03:35.338Z,2.42
2022-10-25T03:06:02.095Z,2.88
2022-10-25T03:11:00.423Z,2.80
2022-10-25T03:13:27.027Z,2.60
2022-10-25T03:15:53.340Z,2.33
2022-10-25T03:18:19.783Z,2.75
2022-10-25T03:20:46.157Z,2.50
2022-10-25T03:23:12.649Z,2.80
2022-10-25T03:25:39.012Z,2.65
2022-10-25T03:28:05.516Z,3.28
2022-10-25T03:30:31.941Z,2.65
2022-10-25T03:32:58.625Z,2.25
2022-10-25T03:35:26.540Z,2.70
2022-10-25T03:37:53.640Z,2.85
2022-10-25T03:40:20.968Z,2.53
2022-10-25T03:42:47.351Z,3.05
2022-10-25T03:45:13.735Z,2.20
2022-10-25T03:47:40.314Z,1.95
2022-10-25T03:50:07.302Z,2.30
2022-10-25T03:52:33.707Z,2.58
2022-10-25T03:55:00.013Z,2.55
2022-10-25T03:57:26.348Z,2.40
2022-10-25T03:59:52.704Z,2.38
2022-10-25T04:02:19.051Z,1.77
2022-10-25T04:04:45.370Z,1.75
2022-10-25T04:07:11.692Z,2.28
2022-10-25T04:09:38.030Z,2.03
2022-10-25T04:12:04.671Z,2.13
2022-10-25T04:14:31.116Z,1.60
2022-10-25T04:16:57.587Z,3.42
2022-10-25T04:19:23.947Z,2.00
2022-10-25T04:21:50.235Z,2.25
2022-10-25T04:24:16.588Z,2.70
2022-10-25T04:26:43.018Z,2.15
2022-10-25T04:29:11.533Z,1.73
2022-10-25T04:31:37.841Z,2.05
2022-10-25T04:34:04.301Z,2.10
2022-10-25T04:36:30.861Z,1.70
2022-10-25T04:38:57.189Z,2.22
2022-10-25T04:41:23.759Z,3.03
2022-10-25T04:43:51.446Z,1.80
2022-10-25T04:46:18.909Z,2.05
2022-10-25T04:48:45.259Z,1.83
2022-10-25T04:51:12.685Z,2.38
2022-10-25T04:53:39.075Z,1.75
2022-10-25T04:56:08.426Z,2.60
2022-10-25T04:58:35.449Z,1.90
2022-10-25T05:01:04.774Z,1.88
2022-10-25T05:03:31.498Z,1.73
2022-10-25T05:06:20.629Z,2.03
2022-10-25T05:08:49.550Z,2.03
2022-10-25T05:11:20.166Z,2.25
2022-10-25T05:13:47.029Z,2.30
2022-10-25T05:16:17.764Z,1.75
2022-10-25T05:18:47.048Z,1.60
2022-10-25T05:21:14.111Z,2.75
2022-10-25T05:23:40.942Z,1.88
2022-10-25T05:26:13.082Z,2.10
2022-10-25T05:28:41.329Z,1.45
2022-10-25T05:31:19.047Z,2.13
2022-10-25T05:33:46.369Z,2.15
2022-10-25T05:36:14.004Z,2.00
2022-10-25T05:38:40.911Z,2.22
2022-10-25T05:41:08.390Z,2.53
2022-10-25T05:43:34.794Z,2.35
2022-10-25T05:46:05.781Z,1.90
2022-10-25T05:48:34.008Z,2.15
2022-10-25T05:51:39.036Z,1.73
2022-10-25T05:54:15.661Z,1.77
2022-10-25T05:56:43.178Z,1.65
2022-10-25T05:59:11.631Z,1.60
2022-10-25T06:01:44.088Z,1.48
2022-10-25T06:04:10.979Z,2.10
2022-10-25T06:06:38.846Z,1.73
2022-10-25T06:09:06.723Z,1.70
2022-10-25T06:11:33.983Z,2.10
2022-10-25T06:14:00.462Z,1.70
2022-10-25T06:16:26.960Z,1.65
2022-10-25T06:18:53.998Z,1.67
2022-10-25T06:21:23.333Z,2.75
2022-10-25T06:23:50.199Z,1.77
2022-10-25T06:26:19.384Z,1.88
2022-10-25T06:28:45.776Z,3.38
2022-10-25T06:31:14.662Z,1.30
2022-10-25T06:33:41.885Z,1.48
2022-10-25T06:36:13.368Z,1.30
2022-10-25T06:38:39.763Z,1.85
2022-10-25T06:41:09.639Z,1.30
2022-10-25T06:43:35.970Z,1.25
2022-10-25T06:46:40.525Z,2.30
2022-10-25T06:49:18.868Z,1.73
2022-10-25T06:51:45.186Z,2.63
2022-10-25T06:54:11.498Z,1.70
2022-10-25T06:56:37.881Z,2.10
2022-10-25T06:59:07.034Z,2.00
2022-10-25T07:01:33.522Z,1.55
2022-10-25T07:03:59.959Z,1.80
2022-10-25T07:06:29.546Z,1.77
2022-10-25T07:08:58.719Z,1.90
2022-10-25T07:11:26.809Z,1.83
2022-10-25T07:13:53.208Z,1.50
2022-10-25T07:16:21.240Z,2.08
2022-10-25T07:18:48.426Z,2.15
2022-10-25T07:21:20.799Z,1.70
2022-10-25T07:23:47.869Z,2.38
2022-10-25T07:26:26.722Z,2.03
2022-10-25T07:28:55.452Z,1.90
2022-10-25T07:31:24.423Z,1.98
2022-10-25T07:33:52.382Z,2.20
2022-10-25T07:36:19.385Z,2.03
2022-10-25T07:38:46.247Z,2.58
2022-10-25T07:41:12.910Z,1.85
2022-10-25T07:43:39.286Z,2.10
2022-10-25T07:46:06.477Z,2.17
2022-10-25T07:48:34.014Z,1.85
2022-10-25T07:51:10.046Z,1.92
2022-10-25T07:53:36.414Z,2.25
2022-10-25T07:56:03.255Z,2.30
2022-10-25T07:58:29.611Z,2.20
2022-10-25T08:01:07.865Z,4.22
2022-10-25T08:03:34.841Z,1.92
2022-10-25T08:06:01.269Z,2.45
2022-10-25T08:08:28.658Z,2.25
2022-10-25T08:10:55.689Z,2.00
2022-10-25T08:13:22.589Z,2.20
2022-10-25T08:15:50.881Z,1.77
2022-10-25T08:18:17.362Z,1.90
2022-10-25T08:21:01.319Z,1.75
2022-10-25T08:23:29.071Z,1.73
2022-10-25T08:25:55.459Z,2.10
2022-10-25T08:28:21.904Z,2.78
2022-10-25T08:30:48.270Z,3.08
2022-10-25T08:33:14.674Z,3.00
2022-10-25T08:35:41.013Z,3.67
2022-10-25T08:38:07.398Z,2.95
2022-10-25T08:40:56.980Z,3.53
2022-10-25T08:43:33.010Z,3.50
2022-10-25T08:46:21.721Z,3.90
2022-10-25T08:48:56.818Z,4.10
2022-10-25T08:51:34.437Z,3.30
2022-10-25T08:54:05.597Z,3.97
2022-10-25T08:56:32.957Z,4.43
2022-10-25T08:59:02.572Z,4.35
2022-10-25T09:01:36.370Z,4.63
2022-10-25T09:04:02.841Z,3.53
2022-10-25T09:06:43.084Z,3.42
2022-10-25T09:09:19.356Z,3.25
2022-10-25T09:11:54.394Z,3.25
2022-10-25T09:14:46.610Z,3.05
2022-10-25T09:17:21.344Z,3.30
2022-10-25T09:20:04.970Z,3.60
2022-10-25T09:22:47.663Z,4.03
2022-10-25T09:25:26.520Z,3.20
2022-10-25T09:28:00.278Z,3.70
2022-10-25T09:30:29.870Z,3.60
2022-10-25T09:33:01.364Z,3.17
2022-10-25T09:35:33.215Z,3.92
2022-10-25T09:40:30.063Z,3.47
2022-10-25T09:43:01.719Z,4.40
2022-10-25T09:48:10.920Z,4.18
2022-10-25T09:50:47.685Z,3.65
2022-10-25T09:53:19.084Z,4.20
2022-10-25T09:55:49.584Z,4.35
2022-10-25T09:58:30.510Z,4.40
2022-10-25T10:01:01.841Z,4.60
2022-10-25T10:03:30.798Z,5.28
2022-10-25T10:06:01.930Z,4.03
2022-10-25T10:08:31.707Z,4.25
2022-10-25T10:10:59.317Z,4.63
2022-10-25T10:13:44.681Z,3.85
2022-10-25T10:16:35.453Z,3.70
2022-10-25T10:19:22.803Z,3.33
2022-10-25T10:21:49.111Z,4.07
2022-10-25T10:24:34.668Z,3.78
2022-10-25T10:27:05.436Z,4.47
2022-10-25T10:29:34.986Z,3.40
2022-10-25T10:32:06.418Z,3.70
2022-10-25T10:34:43.862Z,4.05
2022-10-25T10:37:15.015Z,4.65
2022-10-25T10:39:49.513Z,5.05
2022-10-25T10:42:19.003Z,5.07
2022-10-25T10:45:01.875Z,4.50
2022-10-25T10:47:33.467Z,4.95
2022-10-25T10:50:00.616Z,5.72
2022-10-25T10:52:30.949Z,4.97
2022-10-25T10:54:58.856Z,5.53
2022-10-25T10:57:32.292Z,5.75
2022-10-25T11:00:00.761Z,5.63
2022-10-25T11:02:41.675Z,5.97
2022-10-25T11:05:26.880Z,5.95
2022-10-25T11:08:20.008Z,6.18
2022-10-25T11:10:46.348Z,6.28
2022-10-25T11:13:20.451Z,6.70
2022-10-25T11:16:12.956Z,5.57
2022-10-25T11:18:55.885Z,6.50
2022-10-25T11:21:40.546Z,5.82
2022-10-25T11:24:07.091Z,5.50
2022-10-25T11:26:49.658Z,6.53
2022-10-25T11:29:34.787Z,6.25
2022-10-25T11:32:43.790Z,7.32
2022-10-25T11:36:03.992Z,7.03
2022-10-25T11:38:49.150Z,7.53
2022-10-25T11:41:45.380Z,7.05
2022-10-25T11:44:45.673Z,7.43
2022-10-25T11:47:32.756Z,6.30
2022-10-25T11:50:25.862Z,7.35
2022-10-25T11:53:27.347Z,8.20
2022-10-25T11:56:12.214Z,7.90
2022-10-25T11:59:14.346Z,9.30
2022-10-25T12:01:41.216Z,6.40
2022-10-25T12:04:46.137Z,6.65
2022-10-25T12:07:33.901Z,7.70
2022-10-25T12:10:18.198Z,6.00
2022-10-25T12:12:49.157Z,6.07
2022-10-25T12:15:27.543Z,5.38
2022-10-25T12:17:54.079Z,6.15
2022-10-25T12:20:25.786Z,5.53
2022-10-25T12:25:26.213Z,6.03
2022-10-25T12:28:06.553Z,5.18
2022-10-25T12:30:34.422Z,5.97
2022-10-25T12:33:15.344Z,5.30
2022-10-25T12:35:50.055Z,5.82
2022-10-25T12:38:37.789Z,4.35
2022-10-25T12:41:16.899Z,5.13
2022-10-25T12:43:45.972Z,4.78
2022-10-25T12:46:40.206Z,4.82
2022-10-25T12:49:27.370Z,4.45
2022-10-25T12:52:14.707Z,4.57
2022-10-25T12:55:00.307Z,4.63
2022-10-25T12:57:36.437Z,3.75
2022-10-25T13:00:18.193Z,3.40
2022-10-25T13:03:22.532Z,3.60
2022-10-25T13:06:47.588Z,3.72
2022-10-25T13:09:16.570Z,3.67
2022-10-25T13:12:02.895Z,3.47
2022-10-25T13:14:38.819Z,4.10
2022-10-25T13:17:40.456Z,3.90
2022-10-25T13:22:50.475Z,3.50
2022-10-25T13:25:38.437Z,5.03
2022-10-25T13:28:10.728Z,3.60
2022-10-25T13:30:37.127Z,3.90
2022-10-25T13:33:23.991Z,4.28
2022-10-25T13:35:50.509Z,4.50
2022-10-25T13:38:23.028Z,4.43
2022-10-25T13:41:07.718Z,3.47
2022-10-25T13:43:35.822Z,3.58
2022-10-25T13:46:02.712Z,4.10
2022-10-25T13:48:34.862Z,3.53
2022-10-25T13:51:09.109Z,4.10
2022-10-25T13:53:42.245Z,3.78
2022-10-25T13:56:33.674Z,3.55
2022-10-25T13:59:01.260Z,4.07
2022-10-25T14:01:27.639Z,3.60
2022-10-25T14:04:08.693Z,3.45
2022-10-25T14:06:42.377Z,3.50
2022-10-25T14:09:34.408Z,3.78
2022-10-25T14:12:00.695Z,3.67
2022-10-25T14:14:30.052Z,2.90
2022-10-25T14:17:16.369Z,3.55
2022-10-25T14:19:47.299Z,3.63
2022-10-25T14:22:23.063Z,3.50
2022-10-25T14:24:54.062Z,4.03
2022-10-25T14:27:26.549Z,3.97
2022-10-25T14:29:52.906Z,4.43
2022-10-25T14:32:21.883Z,4.55
2022-10-25T14:34:50.957Z,4.80
2022-10-25T14:37:17.345Z,5.05
2022-10-25T14:39:53.133Z,3.70
2022-10-25T14:42:19.550Z,3.78
2022-10-25T14:44:49.031Z,3.92
2022-10-25T14:47:29.665Z,4.35
2022-10-25T14:49:58.044Z,5.28
2022-10-25T14:52:26.287Z,5.22
2022-10-25T14:54:57.477Z,3.90
2022-10-25T14:57:25.887Z,3.90
2022-10-25T15:02:39.770Z,4.30
2022-10-25T15:05:06.982Z,4.03
2022-10-25T15:07:39.685Z,3.75
2022-10-25T15:10:07.590Z,3.30
2022-10-25T15:12:34.910Z,3.33
2022-10-25T15:15:25.844Z,3.47
2022-10-25T15:17:53.245Z,2.90
2022-10-25T15:20:19.903Z,3.70
2022-10-25T15:22:49.409Z,3.08
2022-10-25T15:25:22.161Z,3.47
2022-10-25T15:27:54.767Z,2.90
2022-10-25T15:30:39.650Z,3.22
2022-10-25T15:33:28.138Z,3.13
2022-10-25T15:35:57.537Z,2.75
2022-10-25T15:39:05.344Z,2.72
2022-10-25T15:41:21.935Z,2.78
2022-10-25T15:43:48.342Z,3.25
2022-10-25T15:46:24.649Z,2.80
2022-10-25T15:48:51.387Z,2.97
2022-10-25T15:51:17.850Z,4.20
2022-10-25T15:53:44.198Z,3.05
2022-10-25T15:56:15.910Z,3.13
2022-10-25T15:58:42.338Z,2.83
2022-10-25T16:01:09.317Z,2.63
2022-10-25T16:03:35.859Z,2.88
2022-10-25T16:06:02.204Z,3.15
2022-10-25T16:08:28.577Z,2.72
2022-10-25T16:10:55.260Z,3.17
2022-10-25T16:13:37.769Z,2.65
2022-10-25T16:16:11.771Z,3.03
2022-10-25T16:18:48.713Z,2.35
2022-10-25T16:21:15.081Z,3.00
2022-10-25T16:23:41.436Z,3.58
2022-10-25T16:26:31.407Z,3.65
2022-10-25T16:28:57.850Z,3.67
2022-10-25T16:31:24.363Z,3.83
2022-10-25T16:33:50.748Z,3.95
2022-10-25T16:36:17.077Z,3.78
2022-10-25T16:38:43.441Z,4.63
2022-10-25T16:41:29.287Z,4.57
2022-10-25T16:43:57.296Z,4.20
2022-10-25T16:46:24.712Z,4.93
2022-10-25T16:48:51.895Z,4.88
2022-10-25T16:51:19.509Z,4.22
2022-10-25T16:53:47.997Z,4.60
2022-10-25T16:56:15.028Z,4.68
2022-10-25T16:58:42.098Z,5.50
2022-10-25T17:01:28.961Z,5.15
2022-10-25T17:03:55.547Z,5.85
2022-10-25T17:06:40.259Z,6.53
2022-10-25T17:09:07.528Z,5.20
2022-10-25T17:11:33.914Z,6.50
2022-10-25T17:14:00.249Z,7.35
2022-10-25T17:16:26.679Z,6.40
2022-10-25T17:18:53.052Z,6.07
2022-10-25T17:21:19.548Z,6.50
2022-10-25T17:23:45.911Z,5.10
2022-10-25T17:26:12.396Z,4.68
2022-10-25T17:28:43.133Z,4.72
2022-10-25T17:31:12.481Z,5.22
2022-10-25T17:33:38.945Z,4.68
2022-10-25T17:36:10.938Z,5.07
2022-10-25T17:38:37.562Z,4.50
2022-10-25T17:41:04.333Z,4.40
2022-10-25T17:43:30.905Z,3.95
2022-10-25T17:46:02.177Z,4.38
2022-10-25T17:48:29.394Z,4.22
2022-10-25T17:51:23.514Z,4.07
2022-10-25T17:53:54.312Z,3.92
2022-10-25T17:56:21.971Z,3.97
2022-10-25T17:58:49.199Z,3.80
2022-10-25T18:01:21.217Z,4.15
2022-10-25T18:03:48.039Z,3.67
2022-10-25T18:06:17.645Z,3.70
2022-10-25T18:08:45.387Z,4.97
2022-10-25T18:11:22.332Z,4.22
2022-10-25T18:13:52.942Z,3.92
2022-10-25T18:16:21.754Z,4.18
2022-10-25T18:18:48.844Z,4.07
2022-10-25T18:21:15.671Z,4.28
2022-10-25T18:23:42.519Z,4.05
2022-10-25T18:26:11.177Z,5.07
2022-10-25T18:28:37.757Z,4.85
2022-10-25T18:31:07.097Z,4.60
2022-10-25T18:33:35.959Z,4.47
2022-10-25T18:36:07.984Z,3.63
2022-10-25T18:38:34.646Z,5.28
2022-10-25T18:41:06.055Z,4.28
2022-10-25T18:43:32.741Z,4.00
2022-10-25T18:45:59.512Z,3.63
2022-10-25T18:48:26.758Z,3.53
2022-10-25T18:50:53.471Z,4.18
2022-10-25T18:53:20.585Z,4.00
2022-10-25T18:55:48.916Z,4.00
2022-10-25T18:58:15.393Z,4.47
2022-10-25T19:00:43.645Z,3.75
2022-10-25T19:03:14.892Z,3.47
2022-10-25T19:05:42.877Z,4.20
2022-10-25T19:08:10.809Z,3.67
2022-10-25T19:10:41.294Z,4.43
2022-10-25T19:13:18.674Z,4.43
2022-10-25T19:15:48.468Z,4.45
2022-10-25T19:18:15.557Z,4.35
2022-10-25T19:20:46.281Z,4.95
2022-10-25T19:23:13.068Z,5.32
2022-10-25T19:25:39.460Z,5.30
2022-10-25T19:28:05.801Z,6.10
2022-10-25T19:30:37.574Z,6.68
2022-10-25T19:33:04.792Z,5.88
2022-10-25T19:35:31.373Z,6.97
2022-10-25T19:37:57.915Z,6.63
2022-10-25T19:40:24.621Z,6.43
2022-10-25T19:42:51.302Z,5.55
2022-10-25T19:45:18.074Z,5.68
2022-10-25T19:47:45.827Z,5.75
2022-10-25T19:50:12.415Z,5.50
2022-10-25T19:52:39.255Z,5.25
2022-10-25T19:55:06.853Z,5.53
2022-10-25T19:57:34.394Z,4.47
2022-10-25T20:00:01.392Z,4.55
2022-10-25T20:02:27.965Z,3.83
2022-10-25T20:04:54.431Z,4.68
2022-10-25T20:07:20.812Z,4.57
2022-10-25T20:09:47.191Z,4.80
2022-10-25T20:12:13.623Z,4.22
2022-10-25T20:14:40.123Z,5.63
2022-10-25T20:17:06.754Z,4.55
2022-10-25T20:19:33.108Z,5.20
2022-10-25T20:21:59.509Z,4.80
2022-10-25T20:24:26.274Z,4.20
2022-10-25T20:26:53.230Z,4.72
2022-10-25T20:29:22.980Z,4.47
2022-10-25T20:31:51.375Z,4.28
2022-10-25T20:34:19.473Z,4.65
2022-10-25T20:36:47.516Z,4.18
2022-10-25T20:39:14.814Z,5.78
2022-10-25T20:41:41.379Z,4.55
2022-10-25T20:44:09.550Z,5.30
2022-10-25T20:46:36.002Z,4.80
2022-10-25T20:49:03.397Z,4.90
2022-10-25T20:51:29.973Z,6.15
2022-10-25T20:53:56.941Z,5.05
2022-10-25T20:56:24.043Z,5.13
2022-10-25T20:58:51.225Z,5.47
2022-10-25T21:01:18.118Z,5.28
2022-10-25T21:03:44.543Z,5.55
2022-10-25T21:06:12.284Z,5.45
2022-10-25T21:08:39.375Z,6.35
2022-10-25T21:11:09.189Z,5.57
2022-10-25T21:13:36.770Z,5.40
2022-10-25T21:16:14.132Z,5.00
2022-10-25T21:18:41.933Z,5.30
2022-10-25T21:21:17.689Z,6.22
2022-10-25T21:23:44.935Z,4.82
2022-10-25T21:26:11.524Z,5.20
2022-10-25T21:28:39.999Z,5.78
2022-10-25T21:31:12.192Z,5.45
2022-10-25T21:33:39.442Z,6.03
2022-10-25T21:36:08.751Z,5.70
2022-10-25T21:38:35.374Z,5.40
2022-10-25T21:41:06.397Z,5.10
2022-10-25T21:43:32.712Z,5.60
2022-10-25T21:45:59.186Z,4.95
2022-10-25T21:48:25.607Z,6.53
2022-10-25T21:50:55.393Z,5.95
2022-10-25T21:53:22.311Z,5.78
2022-10-25T21:55:48.623Z,5.05
2022-10-25T21:58:14.917Z,5.18
2022-10-25T22:00:44.251Z,4.95
2022-10-25T22:03:10.535Z,5.85
2022-10-25T22:05:42.397Z,5.70
2022-10-25T22:08:08.729Z,5.15
2022-10-25T22:10:35.056Z,5.80
2022-10-25T22:13:01.381Z,5.05
2022-10-25T22:15:27.760Z,6.35
2022-10-25T22:17:54.061Z,6.30
2022-10-25T22:20:20.575Z,6.00
2022-10-25T22:22:47.235Z,6.15
2022-10-25T22:25:13.725Z,5.88
2022-10-25T22:27:40.073Z,5.60
2022-10-25T22:30:07.068Z,6.30
2022-10-25T22:32:33.354Z,7.55
2022-10-25T22:34:59.654Z,7.30
2022-10-25T22:37:25.992Z,6.28
2022-10-25T22:39:52.298Z,6.50
2022-10-25T22:42:18.621Z,6.38
2022-10-25T22:44:45.002Z,6.55
2022-10-25T22:47:11.330Z,6.50
2022-10-25T22:49:37.642Z,6.88
2022-10-25T22:52:04.197Z,7.40
2022-10-25T22:54:30.484Z,6.43
2022-10-25T22:56:57.162Z,6.38
2022-10-25T22:59:23.505Z,6.63
2022-10-25T23:01:49.838Z,5.82
2022-10-25T23:04:16.379Z,6.88
2022-10-25T23:06:42.785Z,6.80
2022-10-25T23:09:10.467Z,6.85
2022-10-25T23:11:38.645Z,6.70
2022-10-25T23:14:05.435Z,6.80
2022-10-25T23:16:32.084Z,7.10
2022-10-25T23:18:58.850Z,7.15
2022-10-25T23:21:27.223Z,7.38
2022-10-25T23:23:55.791Z,7.43
2022-10-25T23:26:24.884Z,7.35
2022-10-25T23:28:51.402Z,6.85
2022-10-25T23:31:18.153Z,7.78
2022-10-25T23:33:45.203Z,7.10
2022-10-25T23:36:17.083Z,8.07
2022-10-25T23:38:44.021Z,7.00
2022-10-25T23:41:10.680Z,7.85
2022-10-25T23:43:37.266Z,7.88
2022-10-25T23:46:04.471Z,7.43
2022-10-25T23:48:31.072Z,8.63
2022-10-25T23:51:02.948Z,7.60
2022-10-25T23:53:29.666Z,7.88
2022-10-25T23:55:56.268Z,8.00
2022-10-25T23:58:23.094Z,6.97
